createdAt,value
2019-04-11T00:42:45.084Z,919.01
2019-04-11T00:43:45.387Z,919.03
2019-04-11T00:44:45.154Z,919.07
2019-04-11T00:45:44.130Z,919.10
2019-04-11T00:46:44.621Z,919.09
2019-04-11T00:47:44.981Z,919.05
2019-04-11T00:48:44.045Z,919.13
2019-04-11T00:49:43.981Z,919.05
2019-04-11T00:50:43.976Z,919.02
2019-04-11T00:51:44.388Z,919.08
2019-04-11T00:52:43.950Z,919.16
2019-04-11T00:53:44.511Z,919.17
2019-04-11T00:54:43.927Z,919.13
2019-04-11T00:55:43.962Z,919.21
2019-04-11T00:56:44.226Z,919.14
2019-04-11T00:57:43.999Z,919.13
2019-04-11T00:58:43.887Z,919.19
2019-04-11T00:59:44.695Z,919.18
2019-04-11T01:00:44.969Z,919.21
2019-04-11T01:01:44.949Z,919.24
2019-04-11T01:02:43.842Z,919.08
2019-04-11T01:03:43.887Z,919.12
2019-04-11T01:04:43.824Z,919.30
2019-04-11T01:05:43.808Z,919.22
2019-04-11T01:06:44.607Z,919.14
2019-04-11T01:07:43.929Z,919.22
2019-04-11T01:08:44.064Z,919.19
2019-04-11T01:09:44.310Z,919.09
2019-04-11T01:10:43.758Z,919.21
2019-04-11T01:11:43.746Z,919.16
2019-04-11T01:12:44.683Z,919.27
2019-04-11T01:13:50.357Z,919.21
2019-04-11T01:15:08.582Z,919.22
2019-04-11T01:16:09.113Z,919.15
2019-04-11T01:17:09.427Z,919.13
2019-04-11T01:18:08.497Z,919.00
2019-04-11T01:19:08.750Z,919.15
2019-04-11T01:20:08.474Z,919.15
2019-04-11T01:21:08.563Z,919.12
2019-04-11T01:22:08.450Z,919.24
2019-04-11T01:23:08.949Z,919.23
2019-04-11T01:24:09.295Z,919.13
2019-04-11T01:25:08.508Z,919.07
2019-04-11T01:26:08.730Z,918.99
2019-04-11T01:27:09.727Z,919.04
2019-04-11T01:28:08.385Z,919.08
2019-04-11T01:29:09.249Z,919.13
2019-04-11T01:30:08.367Z,919.07
2019-04-11T01:31:09.396Z,919.10
2019-04-11T01:32:08.382Z,918.94
2019-04-11T01:33:08.386Z,918.98
2019-04-11T01:34:08.584Z,919.03
2019-04-11T01:35:08.926Z,919.00
2019-04-11T01:36:08.915Z,919.10
2019-04-11T01:37:09.174Z,919.15
2019-04-11T01:38:08.336Z,919.19
2019-04-11T01:39:08.516Z,919.23
2019-04-11T01:40:08.257Z,919.24
2019-04-11T01:41:08.248Z,919.26
2019-04-11T01:42:09.104Z,919.26
2019-04-11T01:43:08.226Z,919.24
2019-04-11T01:44:08.920Z,919.21
2019-04-11T01:45:09.411Z,919.19
2019-04-11T01:46:08.200Z,919.19
2019-04-11T01:47:08.721Z,919.24
2019-04-11T01:48:09.095Z,919.28
2019-04-11T01:49:08.202Z,919.23
2019-04-11T01:50:08.505Z,919.26
2019-04-11T01:51:08.192Z,919.29
2019-04-11T01:52:08.128Z,919.24
2019-04-11T01:53:08.934Z,919.30
2019-04-11T01:54:08.110Z,919.27
2019-04-11T01:55:08.303Z,919.29
2019-04-11T01:56:09.274Z,919.27
2019-04-11T01:57:08.123Z,919.28
2019-04-11T01:58:08.667Z,919.31
2019-04-11T01:59:08.053Z,919.30
2019-04-11T02:00:09.394Z,919.30
2019-04-11T02:01:08.379Z,919.36
2019-04-11T02:02:08.027Z,919.37
2019-04-11T02:03:08.829Z,919.38
2019-04-11T02:04:08.006Z,919.38
2019-04-11T02:05:08.381Z,919.41
2019-04-11T02:06:07.979Z,919.43
2019-04-11T02:07:07.971Z,919.47
2019-04-11T02:08:09.182Z,919.46
2019-04-11T02:09:08.150Z,919.52
2019-04-11T02:10:08.552Z,919.58
2019-04-11T02:11:08.193Z,919.56
2019-04-11T02:12:07.913Z,919.56
2019-04-11T02:13:07.929Z,919.58
2019-04-11T02:14:14.112Z,919.59
2019-04-11T02:15:32.742Z,919.60
2019-04-11T02:16:32.830Z,919.61
2019-04-11T02:17:32.922Z,919.60
2019-04-11T02:18:32.711Z,919.54
2019-04-11T02:19:32.699Z,919.55
2019-04-11T02:20:33.369Z,919.51
2019-04-11T02:21:33.665Z,919.51
2019-04-11T02:22:32.809Z,919.54
2019-04-11T02:23:32.657Z,919.53
2019-04-11T02:24:32.645Z,919.48
2019-04-11T02:25:32.634Z,919.50
2019-04-11T02:26:33.581Z,919.46
2019-04-11T02:27:32.744Z,919.47
2019-04-11T02:28:32.885Z,919.47
2019-04-11T02:29:33.293Z,919.47
2019-04-11T02:30:33.929Z,919.46
2019-04-11T02:31:32.771Z,919.48
2019-04-11T02:32:34.421Z,919.50
2019-04-11T02:33:32.972Z,919.49
2019-04-11T02:34:32.538Z,919.52
2019-04-11T02:35:32.645Z,919.56
2019-04-11T02:36:34.171Z,919.56
2019-04-11T02:37:34.330Z,919.56
2019-04-11T02:38:33.306Z,919.58
2019-04-11T02:39:33.753Z,919.52
2019-04-11T02:40:32.875Z,919.53
2019-04-11T02:41:35.068Z,919.57
2019-04-11T02:42:32.976Z,919.51
2019-04-11T02:43:34.103Z,919.56
2019-04-11T02:44:51.055Z,919.59
2019-04-11T02:46:09.802Z,919.66
2019-04-11T02:47:25.336Z,919.72
2019-04-11T02:48:46.908Z,919.70
2019-04-11T02:49:47.724Z,919.67
2019-04-11T02:50:47.852Z,919.74
2019-04-11T02:51:47.333Z,919.69
2019-04-11T02:52:47.388Z,919.71
2019-04-11T02:53:47.285Z,919.79
2019-04-11T02:54:47.359Z,919.76
2019-04-11T02:55:46.931Z,919.76
2019-04-11T02:56:48.797Z,919.80
2019-04-11T02:57:48.251Z,919.79
2019-04-11T02:58:48.155Z,919.81
2019-04-11T02:59:48.902Z,919.81
2019-04-11T03:00:46.949Z,919.84
2019-04-11T03:01:48.444Z,919.85
2019-04-11T03:02:47.910Z,919.92
2019-04-11T03:03:47.467Z,919.93
2019-04-11T03:04:48.132Z,919.97
2019-04-11T03:05:47.063Z,920.01
2019-04-11T03:06:47.917Z,920.05
2019-04-11T03:07:47.699Z,920.09
2019-04-11T03:08:46.626Z,920.06
2019-04-11T03:09:48.707Z,920.10
2019-04-11T03:10:46.672Z,920.08
2019-04-11T03:11:47.225Z,920.06
2019-04-11T03:12:48.477Z,920.08
2019-04-11T03:13:48.278Z,920.08
2019-04-11T03:15:05.440Z,920.10
2019-04-11T03:16:29.766Z,920.11
2019-04-11T03:17:40.124Z,920.05
2019-04-11T03:19:17.890Z,920.10
2019-04-11T03:20:32.575Z,920.09
2019-04-11T03:21:29.168Z,920.11
2019-04-11T03:22:26.924Z,920.07
2019-04-11T03:23:27.838Z,920.03
2019-04-11T03:24:26.979Z,920.04
2019-04-11T03:25:25.873Z,920.12
2019-04-11T03:26:27.056Z,920.10
2019-04-11T03:27:28.093Z,920.04
2019-04-11T03:28:30.247Z,920.07
2019-04-11T03:29:26.741Z,920.07
2019-04-11T03:30:42.373Z,920.11
2019-04-11T03:32:32.113Z,920.15
2019-04-11T03:34:01.298Z,920.16
2019-04-11T03:37:43.101Z,920.17
2019-04-11T03:38:33.111Z,920.20
2019-04-11T03:39:50.739Z,920.11
2019-04-11T03:41:11.568Z,920.18
2019-04-11T03:42:36.586Z,920.22
2019-04-11T03:43:54.076Z,920.21
2019-04-11T03:45:32.568Z,920.28
2019-04-11T03:46:28.356Z,920.29
2019-04-11T03:47:44.850Z,920.35
2019-04-11T03:49:06.360Z,920.26
2019-04-11T03:50:25.963Z,920.36
2019-04-11T03:51:48.310Z,920.33
2019-04-11T03:52:49.579Z,920.37
2019-04-11T03:53:49.054Z,920.37
2019-04-11T03:54:49.554Z,920.36
2019-04-11T03:55:49.417Z,920.36
2019-04-11T03:56:49.168Z,920.38
2019-04-11T03:57:49.175Z,920.39
2019-04-11T03:58:50.248Z,920.35
2019-04-11T03:59:48.470Z,920.39
2019-04-11T04:00:50.569Z,920.40
2019-04-11T04:01:48.759Z,920.34
2019-04-11T04:02:48.956Z,920.38
2019-04-11T04:03:49.027Z,920.32
2019-04-11T04:04:49.334Z,920.36
2019-04-11T04:05:48.655Z,920.39
2019-04-11T04:06:49.771Z,920.44
2019-04-11T04:07:48.871Z,920.45
2019-04-11T04:08:48.762Z,920.45
2019-04-11T04:09:49.026Z,920.46
2019-04-11T04:10:48.106Z,920.45
2019-04-11T04:11:49.329Z,920.44
2019-04-11T04:12:48.196Z,920.39
2019-04-11T04:13:49.716Z,920.45
2019-04-11T04:14:49.532Z,920.46
2019-04-11T04:16:00.276Z,920.48
2019-04-11T04:17:12.843Z,920.43
2019-04-11T04:18:14.274Z,920.48
2019-04-11T04:19:15.715Z,920.51
2019-04-11T04:20:13.031Z,920.50
2019-04-11T04:21:13.402Z,920.53
2019-04-11T04:22:13.540Z,920.60
2019-04-11T04:23:14.126Z,920.56
2019-04-11T04:24:12.794Z,920.60
2019-04-11T04:25:14.183Z,920.58
2019-04-11T04:26:14.609Z,920.66
2019-04-11T04:27:13.237Z,920.69
2019-04-11T04:28:14.260Z,920.67
2019-04-11T04:29:12.725Z,920.68
2019-04-11T04:30:13.708Z,920.69
2019-04-11T04:31:14.015Z,920.70
2019-04-11T04:32:14.175Z,920.73
2019-04-11T04:33:14.461Z,920.74
2019-04-11T04:34:13.025Z,920.78
2019-04-11T04:35:16.796Z,920.78
2019-04-11T04:36:37.873Z,920.84
2019-04-11T04:37:38.787Z,920.89
2019-04-11T04:38:38.999Z,920.92
2019-04-11T04:39:39.008Z,920.95
2019-04-11T04:40:51.172Z,920.94
2019-04-11T04:42:10.605Z,920.94
2019-04-11T04:43:27.941Z,920.96
2019-04-11T04:44:27.067Z,920.91
2019-04-11T04:45:27.682Z,920.88
2019-04-11T04:46:45.323Z,920.87
2019-04-11T04:47:56.581Z,920.92
2019-04-11T04:49:18.523Z,920.91
2019-04-11T04:50:18.177Z,920.94
2019-04-11T04:51:19.591Z,920.94
2019-04-11T04:52:16.680Z,920.93
2019-04-11T04:53:18.026Z,920.93
2019-04-11T04:54:16.794Z,921.00
2019-04-11T04:55:17.278Z,920.96
2019-04-11T04:56:22.049Z,921.07
2019-04-11T04:57:42.892Z,921.11
2019-04-11T04:58:42.092Z,921.12
2019-04-11T04:59:42.531Z,921.08
2019-04-11T05:00:41.391Z,921.10
2019-04-11T05:01:42.114Z,921.05
2019-04-11T05:02:42.108Z,921.01
2019-04-11T05:03:42.344Z,921.06
2019-04-11T05:04:41.350Z,921.02
2019-04-11T05:05:42.453Z,921.02
2019-04-11T05:06:44.803Z,921.05
2019-04-11T05:08:06.332Z,921.01
2019-04-11T05:09:06.569Z,921.05
2019-04-11T05:10:07.149Z,921.05
2019-04-11T05:11:07.644Z,921.05
2019-04-11T05:12:06.161Z,921.07
2019-04-11T05:13:07.636Z,921.04
2019-04-11T05:14:07.209Z,921.02
2019-04-11T05:15:06.068Z,920.98
2019-04-11T05:16:16.418Z,920.97
2019-04-11T05:17:32.409Z,920.91
2019-04-11T05:18:32.027Z,920.90
2019-04-11T05:19:32.019Z,920.89
2019-04-11T05:20:30.874Z,920.89
2019-04-11T05:21:30.868Z,920.90
2019-04-11T05:22:31.052Z,920.88
2019-04-11T05:23:31.876Z,920.87
2019-04-11T05:24:30.833Z,920.83
2019-04-11T05:25:30.829Z,920.86
2019-04-11T05:26:31.401Z,920.88
2019-04-11T05:27:31.440Z,920.84
2019-04-11T05:28:31.874Z,920.81
2019-04-11T05:29:30.783Z,920.81
2019-04-11T05:30:31.534Z,920.81
2019-04-11T05:31:30.759Z,920.81
2019-04-11T05:32:31.269Z,920.82
2019-04-11T05:33:31.479Z,920.83
2019-04-11T05:34:30.982Z,920.93
2019-04-11T05:35:32.854Z,920.93
2019-04-11T05:36:30.710Z,920.97
2019-04-11T05:37:31.325Z,920.99
2019-04-11T05:38:30.681Z,920.95
2019-04-11T05:39:31.659Z,920.96
2019-04-11T05:40:31.018Z,920.99
2019-04-11T05:41:31.459Z,921.01
2019-04-11T05:42:31.325Z,920.99
2019-04-11T05:43:36.638Z,920.99
2019-04-11T05:44:55.450Z,920.96
2019-04-11T05:45:56.727Z,920.98
2019-04-11T05:46:59.176Z,921.01
2019-04-11T05:47:56.675Z,921.00
2019-04-11T05:49:00.447Z,920.99
2019-04-11T05:49:55.386Z,920.97
2019-04-11T05:50:56.223Z,921.02
2019-04-11T05:51:57.997Z,921.00
2019-04-11T05:52:56.627Z,920.98
2019-04-11T05:53:55.849Z,920.97
2019-04-11T05:54:55.375Z,920.99
2019-04-11T05:55:55.337Z,921.00
2019-04-11T05:56:57.813Z,921.03
2019-04-11T05:57:55.397Z,921.04
2019-04-11T05:58:55.624Z,921.01
2019-04-11T05:59:56.568Z,921.00
2019-04-11T06:00:55.962Z,921.00
2019-04-11T06:01:55.267Z,921.03
2019-04-11T06:02:55.273Z,921.02
2019-04-11T06:03:55.739Z,920.95
2019-04-11T06:04:56.160Z,920.95
2019-04-11T06:05:59.692Z,920.87
2019-04-11T06:06:56.885Z,920.92
2019-04-11T06:07:57.612Z,920.88
2019-04-11T06:08:59.363Z,920.87
2019-04-11T06:09:55.228Z,920.81
2019-04-11T06:10:55.166Z,920.86
2019-04-11T06:11:57.542Z,920.87
2019-04-11T06:12:55.143Z,920.81
2019-04-11T06:13:55.137Z,920.85
2019-04-11T06:14:55.497Z,920.81
2019-04-11T06:15:56.650Z,920.77
2019-04-11T06:16:56.163Z,920.77
2019-04-11T06:17:55.096Z,920.80
2019-04-11T06:18:57.169Z,920.78
2019-04-11T06:19:55.671Z,920.78
2019-04-11T06:20:55.680Z,920.79
2019-04-11T06:21:56.075Z,920.73
2019-04-11T06:22:56.130Z,920.72
2019-04-11T06:23:55.914Z,920.71
2019-04-11T06:24:55.016Z,920.68
2019-04-11T06:25:55.546Z,920.65
2019-04-11T06:26:54.998Z,920.70
2019-04-11T06:27:55.807Z,920.66
2019-04-11T06:28:55.864Z,920.68
2019-04-11T06:29:54.973Z,920.72
2019-04-11T06:30:54.954Z,920.69
2019-04-11T06:31:55.120Z,920.64
2019-04-11T06:32:56.230Z,920.61
2019-04-11T06:33:54.976Z,920.57
2019-04-11T06:34:55.589Z,920.62
2019-04-11T06:35:54.906Z,920.61
2019-04-11T06:36:55.264Z,920.67
2019-04-11T06:37:54.882Z,920.65
2019-04-11T06:38:54.868Z,920.67
2019-04-11T06:39:57.826Z,920.68
2019-04-11T06:40:54.845Z,920.70
2019-04-11T06:41:54.952Z,920.71
2019-04-11T06:42:55.939Z,920.71
2019-04-11T06:43:54.815Z,920.70
2019-04-11T06:44:54.804Z,920.68
2019-04-11T06:45:54.854Z,920.71
2019-04-11T06:46:57.740Z,920.66
2019-04-11T06:47:54.775Z,920.66
2019-04-11T06:48:55.904Z,920.64
2019-04-11T06:49:55.108Z,920.66
2019-04-11T06:50:55.544Z,920.64
2019-04-11T06:51:55.103Z,920.68
2019-04-11T06:52:54.718Z,920.69
2019-04-11T06:53:54.714Z,920.71
2019-04-11T06:54:54.696Z,920.70
2019-04-11T06:55:55.126Z,920.75
2019-04-11T06:56:54.727Z,920.68
2019-04-11T06:57:54.672Z,920.64
2019-04-11T06:58:56.447Z,920.67
2019-04-11T06:59:54.653Z,920.69
2019-04-11T07:00:55.704Z,920.65
2019-04-11T07:01:55.134Z,920.66
2019-04-11T07:02:55.124Z,920.65
2019-04-11T07:03:55.290Z,920.69
2019-04-11T07:04:54.780Z,920.69
2019-04-11T07:05:55.289Z,920.68
2019-04-11T07:06:55.772Z,920.73
2019-04-11T07:07:55.790Z,920.64
2019-04-11T07:08:54.724Z,920.63
2019-04-11T07:09:55.527Z,920.64
2019-04-11T07:10:55.248Z,920.59
2019-04-11T07:11:54.522Z,920.57
2019-04-11T07:12:56.945Z,920.56
2019-04-11T07:13:55.492Z,920.54
2019-04-11T07:14:55.102Z,920.52
2019-04-11T07:15:54.858Z,920.50
2019-04-11T07:17:02.268Z,920.47
2019-04-11T07:18:20.481Z,920.46
2019-04-11T07:19:19.849Z,920.47
2019-04-11T07:20:19.276Z,920.45
2019-04-11T07:21:19.243Z,920.44
2019-04-11T07:22:19.232Z,920.42
2019-04-11T07:23:20.138Z,920.43
2019-04-11T07:24:20.295Z,920.42
2019-04-11T07:25:20.276Z,920.39
2019-04-11T07:26:19.193Z,920.36
2019-04-11T07:27:20.173Z,920.35
2019-04-11T07:28:19.168Z,920.37
2019-04-11T07:29:19.491Z,920.35
2019-04-11T07:30:19.361Z,920.39
2019-04-11T07:31:19.401Z,920.43
2019-04-11T07:32:20.196Z,920.41
2019-04-11T07:33:20.164Z,920.37
2019-04-11T07:34:19.481Z,920.38
2019-04-11T07:35:19.333Z,920.38
2019-04-11T07:36:20.855Z,920.38
2019-04-11T07:37:19.261Z,920.40
2019-04-11T07:38:19.061Z,920.39
2019-04-11T07:39:20.108Z,920.34
2019-04-11T07:40:19.036Z,920.40
2019-04-11T07:41:19.595Z,920.38
2019-04-11T07:42:19.016Z,920.42
2019-04-11T07:43:19.518Z,920.39
2019-04-11T07:44:19.599Z,920.32
2019-04-11T07:45:18.988Z,920.34
2019-04-11T07:46:18.973Z,920.35
2019-04-11T07:47:22.176Z,920.34
2019-04-11T07:48:19.357Z,920.36
2019-04-11T07:49:19.916Z,920.33
2019-04-11T07:50:19.835Z,920.40
2019-04-11T07:51:19.652Z,920.40
2019-04-11T07:52:18.913Z,920.41
2019-04-11T07:53:19.729Z,920.42
2019-04-11T07:54:20.139Z,920.44
2019-04-11T07:55:19.031Z,920.44
2019-04-11T07:56:18.870Z,920.44
2019-04-11T07:57:19.285Z,920.46
2019-04-11T07:58:19.419Z,920.47
2019-04-11T07:59:19.582Z,920.48
2019-04-11T08:00:19.358Z,920.52
2019-04-11T08:01:44.719Z,920.58
2019-04-11T08:02:43.672Z,920.52
2019-04-11T08:03:44.628Z,920.51
2019-04-11T08:04:43.648Z,920.48
2019-04-11T08:05:44.624Z,920.46
2019-04-11T08:06:43.680Z,920.44
2019-04-11T08:07:44.816Z,920.41
2019-04-11T08:08:43.616Z,920.39
2019-04-11T08:09:43.877Z,920.40
2019-04-11T08:10:43.767Z,920.39
2019-04-11T08:11:44.243Z,920.40
2019-04-11T08:12:43.717Z,920.35
2019-04-11T08:13:43.563Z,920.33
2019-04-11T08:14:44.589Z,920.33
2019-04-11T08:15:43.950Z,920.31
2019-04-11T08:16:44.633Z,920.30
2019-04-11T08:17:44.505Z,920.29
2019-04-11T08:18:43.559Z,920.35
2019-04-11T08:19:43.823Z,920.27
2019-04-11T08:20:43.663Z,920.22
2019-04-11T08:21:44.101Z,920.27
2019-04-11T08:22:43.461Z,920.27
2019-04-11T08:23:43.602Z,920.30
2019-04-11T08:24:44.809Z,920.25
2019-04-11T08:25:43.427Z,920.27
2019-04-11T08:26:44.363Z,920.30
2019-04-11T08:27:53.092Z,920.24
2019-04-11T08:29:13.385Z,920.23
2019-04-11T08:30:33.186Z,920.23
2019-04-11T08:31:33.150Z,920.26
2019-04-11T08:32:33.788Z,920.28
2019-04-11T08:33:33.133Z,920.25
2019-04-11T08:34:33.247Z,920.27
2019-04-11T08:35:34.766Z,920.22
2019-04-11T08:36:33.777Z,920.19
2019-04-11T08:37:33.791Z,920.18
2019-04-11T08:38:34.158Z,920.14
2019-04-11T08:39:33.318Z,920.20
2019-04-11T08:40:33.603Z,920.16
2019-04-11T08:41:33.874Z,920.10
2019-04-11T08:42:33.721Z,920.11
2019-04-11T08:43:33.051Z,920.12
2019-04-11T08:44:34.130Z,920.08
2019-04-11T08:45:33.897Z,920.08
2019-04-11T08:46:33.147Z,920.05
2019-04-11T08:47:45.981Z,920.07
2019-04-11T08:48:57.775Z,920.05
2019-04-11T08:49:58.417Z,920.02
2019-04-11T08:50:58.701Z,919.99
2019-04-11T08:51:57.888Z,919.96
2019-04-11T08:52:57.783Z,920.00
2019-04-11T08:53:57.720Z,919.95
2019-04-11T08:54:57.705Z,919.96
2019-04-11T08:56:00.458Z,920.00
2019-04-11T08:56:57.689Z,919.94
2019-04-11T08:57:58.324Z,919.94
2019-04-11T08:58:57.767Z,919.92
2019-04-11T08:59:57.721Z,919.93
2019-04-11T09:01:00.420Z,919.93
2019-04-11T09:01:57.631Z,919.93
2019-04-11T09:02:57.618Z,919.94
2019-04-11T09:04:06.320Z,919.92
2019-04-11T09:05:22.819Z,919.92
2019-04-11T09:06:22.938Z,919.89
2019-04-11T09:07:22.542Z,919.93
2019-04-11T09:08:24.629Z,919.90
2019-04-11T09:09:23.120Z,919.90
2019-04-11T09:10:22.572Z,919.84
2019-04-11T09:11:22.640Z,919.82
2019-04-11T09:12:22.605Z,919.79
2019-04-11T09:13:22.971Z,919.79
2019-04-11T09:14:22.488Z,919.76
2019-04-11T09:15:22.464Z,919.70
2019-04-11T09:16:23.620Z,919.69
2019-04-11T09:17:23.352Z,919.68
2019-04-11T09:18:22.419Z,919.67
2019-04-11T09:19:23.054Z,919.65
2019-04-11T09:20:23.340Z,919.68
2019-04-11T09:21:22.401Z,919.62
2019-04-11T09:22:22.683Z,919.62
2019-04-11T09:23:22.362Z,919.66
2019-04-11T09:24:22.351Z,919.65
2019-04-11T09:25:23.251Z,919.63
2019-04-11T09:26:23.343Z,919.63
2019-04-11T09:27:22.654Z,919.59
2019-04-11T09:28:22.408Z,919.60
2019-04-11T09:29:22.298Z,919.61
2019-04-11T09:30:23.045Z,919.56
2019-04-11T09:31:22.274Z,919.59
2019-04-11T09:32:22.276Z,919.61
2019-04-11T09:33:22.698Z,919.64
2019-04-11T09:34:22.346Z,919.60
2019-04-11T09:35:22.229Z,919.58
2019-04-11T09:36:22.219Z,919.52
2019-04-11T09:37:22.231Z,919.47
2019-04-11T09:38:22.263Z,919.46
2019-04-11T09:39:23.241Z,919.48
2019-04-11T09:40:22.227Z,919.53
2019-04-11T09:41:22.682Z,919.48
2019-04-11T09:42:23.003Z,919.49
2019-04-11T09:43:22.313Z,919.44
2019-04-11T09:44:22.479Z,919.40
2019-04-11T09:45:22.272Z,919.41
2019-04-11T09:46:22.164Z,919.40
2019-04-11T09:47:22.222Z,919.41
2019-04-11T09:48:23.317Z,919.36
2019-04-11T09:49:22.723Z,919.39
2019-04-11T09:50:22.418Z,919.34
2019-04-11T09:51:23.368Z,919.37
2019-04-11T09:52:22.748Z,919.37
2019-04-11T09:53:22.754Z,919.32
2019-04-11T09:54:22.030Z,919.32
2019-04-11T09:55:22.014Z,919.28
2019-04-11T09:56:22.828Z,919.30
2019-04-11T09:57:22.813Z,919.25
2019-04-11T09:58:23.082Z,919.22
2019-04-11T09:59:23.011Z,919.18
2019-04-11T10:00:22.920Z,919.24
2019-04-11T10:01:21.951Z,919.21
2019-04-11T10:02:23.254Z,919.19
2019-04-11T10:03:23.372Z,919.18
2019-04-11T10:04:21.919Z,919.20
2019-04-11T10:05:22.357Z,919.19
2019-04-11T10:06:21.895Z,919.16
2019-04-11T10:07:21.890Z,919.14
2019-04-11T10:08:22.463Z,919.11
2019-04-11T10:09:22.040Z,919.09
2019-04-11T10:10:21.852Z,919.11
2019-04-11T10:11:22.000Z,919.10
2019-04-11T10:12:22.119Z,919.10
2019-04-11T10:13:21.824Z,919.08
2019-04-11T10:14:21.810Z,919.11
2019-04-11T10:15:23.154Z,919.09
2019-04-11T10:16:22.112Z,919.09
2019-04-11T10:17:24.494Z,919.08
2019-04-11T10:18:26.145Z,919.08
2019-04-11T10:19:46.569Z,919.11
2019-04-11T10:20:46.710Z,919.08
2019-04-11T10:21:47.782Z,919.06
2019-04-11T10:22:46.539Z,919.04
2019-04-11T10:23:47.141Z,919.05
2019-04-11T10:24:46.521Z,919.02
2019-04-11T10:25:47.605Z,919.06
2019-04-11T10:26:47.821Z,919.03
2019-04-11T10:27:47.018Z,919.03
2019-04-11T10:28:46.481Z,919.03
2019-04-11T10:29:46.469Z,919.02
2019-04-11T10:30:46.511Z,919.02
2019-04-11T10:31:46.530Z,919.00
2019-04-11T10:32:47.555Z,919.03
2019-04-11T10:33:46.893Z,918.97
2019-04-11T10:34:46.419Z,918.94
2019-04-11T10:35:46.451Z,918.98
2019-04-11T10:36:47.379Z,918.90
2019-04-11T10:37:47.624Z,918.95
2019-04-11T10:38:46.818Z,918.87
2019-04-11T10:39:46.358Z,918.95
2019-04-11T10:40:46.353Z,918.96
2019-04-11T10:41:47.893Z,918.96
2019-04-11T10:42:46.553Z,918.94
2019-04-11T10:43:47.464Z,918.94
2019-04-11T10:44:46.309Z,919.00
2019-04-11T10:45:46.901Z,919.00
2019-04-11T10:46:47.366Z,918.98
2019-04-11T10:47:47.294Z,919.01
2019-04-11T10:48:47.474Z,918.98
2019-04-11T10:49:46.295Z,919.07
2019-04-11T10:50:46.651Z,919.02
2019-04-11T10:51:46.240Z,918.97
2019-04-11T10:52:46.742Z,918.98
2019-04-11T10:53:47.041Z,918.97
2019-04-11T10:54:47.119Z,918.97
2019-04-11T10:55:46.215Z,918.98
2019-04-11T10:56:47.460Z,918.95
2019-04-11T10:57:46.702Z,918.98
2019-04-11T10:58:46.213Z,918.99
2019-04-11T10:59:47.079Z,918.96
2019-04-11T11:00:47.295Z,918.97
2019-04-11T11:01:46.440Z,918.98
2019-04-11T11:02:47.384Z,918.94
2019-04-11T11:03:47.252Z,918.96
2019-04-11T11:04:46.253Z,918.89
2019-04-11T11:05:47.172Z,918.92
2019-04-11T11:06:46.574Z,918.94
2019-04-11T11:07:46.069Z,918.92
2019-04-11T11:08:46.059Z,918.87
2019-04-11T11:09:46.357Z,918.90
2019-04-11T11:10:46.091Z,918.91
2019-04-11T11:11:46.251Z,918.87
2019-04-11T11:12:46.011Z,918.86
2019-04-11T11:13:46.004Z,918.84
2019-04-11T11:14:46.977Z,918.82
2019-04-11T11:15:45.984Z,918.83
2019-04-11T11:16:47.038Z,918.81
2019-04-11T11:18:12.625Z,918.85
2019-04-11T11:19:43.884Z,918.81
2019-04-11T11:20:22.272Z,918.81
2019-04-11T11:21:37.044Z,918.82
2019-04-11T11:22:36.285Z,918.81
2019-04-11T11:23:35.539Z,918.84
2019-04-11T11:24:38.244Z,918.89
2019-04-11T11:25:35.524Z,918.89
2019-04-11T11:26:35.674Z,918.84
2019-04-11T11:27:35.500Z,918.92
2019-04-11T11:28:36.676Z,918.83
2019-04-11T11:29:35.473Z,918.84
2019-04-11T11:30:35.468Z,918.82
2019-04-11T11:31:36.268Z,918.90
2019-04-11T11:32:35.777Z,918.87
2019-04-11T11:33:35.447Z,918.99
2019-04-11T11:34:36.647Z,918.89
2019-04-11T11:35:40.085Z,918.85
2019-04-11T11:36:37.593Z,918.94
2019-04-11T11:37:35.466Z,918.95
2019-04-11T11:38:35.828Z,918.90
2019-04-11T11:39:35.370Z,918.83
2019-04-11T11:40:38.474Z,918.86
2019-04-11T11:41:36.433Z,918.85
2019-04-11T11:42:36.478Z,918.86
2019-04-11T11:43:35.330Z,918.86
2019-04-11T11:44:35.315Z,918.86
2019-04-11T11:45:35.465Z,918.86
2019-04-11T11:46:36.352Z,918.81
2019-04-11T11:47:38.677Z,918.79
2019-04-11T11:48:35.634Z,918.74
2019-04-11T11:49:45.878Z,918.79
2019-04-11T11:51:01.217Z,918.79
2019-04-11T11:52:01.568Z,918.81
2019-04-11T11:53:05.841Z,918.83
2019-04-11T11:54:24.843Z,918.95
2019-04-11T11:55:25.109Z,918.88
2019-04-11T11:56:24.834Z,918.89
2019-04-11T11:57:25.115Z,918.89
2019-04-11T11:58:25.762Z,918.85
2019-04-11T11:59:25.100Z,918.85
2019-04-11T12:00:25.061Z,918.87
2019-04-11T12:01:24.771Z,918.91
2019-04-11T12:02:24.759Z,918.97
2019-04-11T12:03:27.688Z,918.91
2019-04-11T12:04:26.096Z,918.88
2019-04-11T12:05:26.778Z,918.91
2019-04-11T12:06:25.230Z,918.90
2019-04-11T12:07:25.155Z,918.94
2019-04-11T12:08:24.694Z,918.95
2019-04-11T12:09:24.740Z,918.90
2019-04-11T12:10:26.015Z,918.90
2019-04-11T12:11:24.670Z,918.90
2019-04-11T12:12:24.657Z,918.88
2019-04-11T12:13:24.648Z,918.86
2019-04-11T12:14:24.637Z,918.87
2019-04-11T12:15:26.842Z,918.88
2019-04-11T12:16:25.825Z,918.85
2019-04-11T12:17:24.911Z,918.86
2019-04-11T12:18:24.641Z,918.83
2019-04-11T12:19:24.821Z,918.85
2019-04-11T12:20:24.955Z,918.81
2019-04-11T12:21:27.831Z,918.77
2019-04-11T12:22:24.546Z,918.81
2019-04-11T12:23:24.535Z,918.82
2019-04-11T12:24:25.238Z,918.81
2019-04-11T12:25:25.117Z,918.82
2019-04-11T12:26:28.821Z,918.83
2019-04-11T12:27:24.605Z,918.79
2019-04-11T12:28:25.580Z,918.81
2019-04-11T12:29:24.479Z,918.76
2019-04-11T12:30:29.083Z,918.76
2019-04-11T12:31:50.235Z,918.81
2019-04-11T12:32:49.407Z,918.84
2019-04-11T12:33:49.962Z,918.79
2019-04-11T12:34:49.437Z,918.81
2019-04-11T12:35:49.223Z,918.77
2019-04-11T12:36:50.817Z,918.76
2019-04-11T12:37:51.787Z,918.75
2019-04-11T12:38:49.243Z,918.79
2019-04-11T12:39:49.185Z,918.74
2019-04-11T12:40:49.166Z,918.75
2019-04-11T12:41:49.163Z,918.76
2019-04-11T12:42:49.149Z,918.76
2019-04-11T12:43:49.135Z,918.75
2019-04-11T12:44:49.177Z,918.76
2019-04-11T12:45:49.121Z,918.75
2019-04-11T12:46:49.103Z,918.78
2019-04-11T12:47:49.094Z,918.76
2019-04-11T12:48:49.079Z,918.82
2019-04-11T12:49:53.056Z,918.81
2019-04-11T12:50:49.212Z,918.82
2019-04-11T12:51:49.050Z,918.83
2019-04-11T12:52:49.040Z,918.83
2019-04-11T12:53:49.028Z,918.80
2019-04-11T12:54:49.025Z,918.77
2019-04-11T12:55:49.006Z,918.76
2019-04-11T12:56:49.043Z,918.73
2019-04-11T12:57:48.992Z,918.79
2019-04-11T12:58:48.972Z,918.78
2019-04-11T12:59:48.965Z,918.77
2019-04-11T13:00:48.958Z,918.80
2019-04-11T13:01:48.938Z,918.77
2019-04-11T13:02:48.983Z,918.80
2019-04-11T13:03:48.921Z,918.83
2019-04-11T13:04:48.909Z,918.86
2019-04-11T13:05:48.895Z,918.81
2019-04-11T13:06:48.892Z,918.79
2019-04-11T13:07:48.883Z,918.77
2019-04-11T13:08:49.022Z,918.75
2019-04-11T13:09:48.855Z,918.77
2019-04-11T13:10:48.845Z,918.75
2019-04-11T13:11:48.836Z,918.75
2019-04-11T13:12:48.824Z,918.74
2019-04-11T13:13:48.817Z,918.77
2019-04-11T13:14:48.905Z,918.75
2019-04-11T13:15:48.787Z,918.77
2019-04-11T13:16:48.778Z,918.80
2019-04-11T13:17:48.768Z,918.75
2019-04-11T13:18:48.758Z,918.78
2019-04-11T13:19:48.748Z,918.76
2019-04-11T13:20:48.782Z,918.75
2019-04-11T13:21:48.731Z,918.76
2019-04-11T13:22:48.716Z,918.74
2019-04-11T13:23:48.702Z,918.77
2019-04-11T13:24:48.692Z,918.83
2019-04-11T13:25:48.680Z,918.82
2019-04-11T13:26:48.719Z,918.81
2019-04-11T13:27:48.661Z,918.86
2019-04-11T13:28:48.649Z,918.84
2019-04-11T13:29:48.641Z,918.83
2019-04-11T13:30:48.624Z,918.82